sensor_id;sensor_type;location;lat;lon;timestamp;temperature;humidity
75819;DHT22;64453;51.944;9.796;2023-09-08T00:00:35;20.70;58.00
75819;DHT22;64453;51.944;9.796;2023-09-08T00:03:02;20.70;58.30
75819;DHT22;64453;51.944;9.796;2023-09-08T00:05:29;20.50;58.90
75819;DHT22;64453;51.944;9.796;2023-09-08T00:07:56;20.70;59.00
75819;DHT22;64453;51.944;9.796;2023-09-08T00:10:23;20.80;58.00
75819;DHT22;64453;51.944;9.796;2023-09-08T00:12:51;20.30;58.80
75819;DHT22;64453;51.944;9.796;2023-09-08T00:15:18;20.60;58.10
75819;DHT22;64453;51.944;9.796;2023-09-08T00:17:45;20.40;58.20
75819;DHT22;64453;51.944;9.796;2023-09-08T00:20:13;20.90;57.30
75819;DHT22;64453;51.944;9.796;2023-09-08T00:22:40;20.90;57.70
75819;DHT22;64453;51.944;9.796;2023-09-08T00:25:07;21.00;57.70
75819;DHT22;64453;51.944;9.796;2023-09-08T00:27:34;20.90;57.50
75819;DHT22;64453;51.944;9.796;2023-09-08T00:30:03;20.50;57.80
75819;DHT22;64453;51.944;9.796;2023-09-08T00:32:31;20.10;58.90
75819;DHT22;64453;51.944;9.796;2023-09-08T00:34:58;20.50;57.80
75819;DHT22;64453;51.944;9.796;2023-09-08T00:37:25;20.80;56.90
75819;DHT22;64453;51.944;9.796;2023-09-08T00:39:52;20.90;56.80
75819;DHT22;64453;51.944;9.796;2023-09-08T00:42:18;20.90;56.50
75819;DHT22;64453;51.944;9.796;2023-09-08T00:44:45;21.10;56.90
75819;DHT22;64453;51.944;9.796;2023-09-08T00:47:13;21.00;57.50
75819;DHT22;64453;51.944;9.796;2023-09-08T00:49:40;20.80;57.30
75819;DHT22;64453;51.944;9.796;2023-09-08T00:52:08;20.50;57.40
75819;DHT22;64453;51.944;9.796;2023-09-08T00:54:35;20.30;58.40
75819;DHT22;64453;51.944;9.796;2023-09-08T00:57:02;20.10;57.90
75819;DHT22;64453;51.944;9.796;2023-09-08T00:59:31;20.10;58.00
75819;DHT22;64453;51.944;9.796;2023-09-08T01:01:58;20.10;58.20
75819;DHT22;64453;51.944;9.796;2023-09-08T01:04:27;20.20;58.20
75819;DHT22;64453;51.944;9.796;2023-09-08T01:06:55;20.20;58.20
75819;DHT22;64453;51.944;9.796;2023-09-08T01:09:24;20.10;57.80
75819;DHT22;64453;51.944;9.796;2023-09-08T01:11:51;19.90;58.10
75819;DHT22;64453;51.944;9.796;2023-09-08T01:14:21;20.00;58.10
75819;DHT22;64453;51.944;9.796;2023-09-08T01:16:47;20.00;58.20
75819;DHT22;64453;51.944;9.796;2023-09-08T01:19:17;20.20;57.80
75819;DHT22;64453;51.944;9.796;2023-09-08T01:22:07;20.10;58.10
75819;DHT22;64453;51.944;9.796;2023-09-08T01:25:02;20.00;58.00
75819;DHT22;64453;51.944;9.796;2023-09-08T01:27:36;19.60;58.10
75819;DHT22;64453;51.944;9.796;2023-09-08T01:30:05;19.80;58.00
75819;DHT22;64453;51.944;9.796;2023-09-08T01:32:34;20.10;57.70
75819;DHT22;64453;51.944;9.796;2023-09-08T01:35:01;20.50;57.50
75819;DHT22;64453;51.944;9.796;2023-09-08T01:37:29;20.40;56.70
75819;DHT22;64453;51.944;9.796;2023-09-08T01:39:56;20.20;57.90
75819;DHT22;64453;51.944;9.796;2023-09-08T01:42:24;20.20;57.50
75819;DHT22;64453;51.944;9.796;2023-09-08T01:44:51;20.40;57.40
75819;DHT22;64453;51.944;9.796;2023-09-08T01:47:18;20.10;57.30
75819;DHT22;64453;51.944;9.796;2023-09-08T01:49:45;20.20;57.20
75819;DHT22;64453;51.944;9.796;2023-09-08T01:52:12;20.40;57.00
75819;DHT22;64453;51.944;9.796;2023-09-08T01:54:39;19.90;58.00
75819;DHT22;64453;51.944;9.796;2023-09-08T01:57:06;19.80;58.10
75819;DHT22;64453;51.944;9.796;2023-09-08T01:59:34;19.70;58.10
75819;DHT22;64453;51.944;9.796;2023-09-08T02:02:02;19.60;57.80
75819;DHT22;64453;51.944;9.796;2023-09-08T02:04:29;19.60;58.20
75819;DHT22;64453;51.944;9.796;2023-09-08T02:06:56;20.00;57.70
75819;DHT22;64453;51.944;9.796;2023-09-08T02:09:30;19.90;57.20
75819;DHT22;64453;51.944;9.796;2023-09-08T02:11:58;19.80;57.30
75819;DHT22;64453;51.944;9.796;2023-09-08T02:14:25;19.30;58.00
75819;DHT22;64453;51.944;9.796;2023-09-08T02:16:54;19.30;58.60
75819;DHT22;64453;51.944;9.796;2023-09-08T02:19:21;19.30;58.70
75819;DHT22;64453;51.944;9.796;2023-09-08T02:21:49;19.50;58.50
75819;DHT22;64453;51.944;9.796;2023-09-08T02:24:16;19.80;57.80
75819;DHT22;64453;51.944;9.796;2023-09-08T02:26:42;20.10;58.00
75819;DHT22;64453;51.944;9.796;2023-09-08T02:29:09;20.10;57.30
75819;DHT22;64453;51.944;9.796;2023-09-08T02:31:37;20.10;57.30
75819;DHT22;64453;51.944;9.796;2023-09-08T02:34:05;19.50;58.70
75819;DHT22;64453;51.944;9.796;2023-09-08T02:36:35;19.70;58.20
75819;DHT22;64453;51.944;9.796;2023-09-08T02:39:05;19.90;58.30
75819;DHT22;64453;51.944;9.796;2023-09-08T02:41:33;19.90;58.60
75819;DHT22;64453;51.944;9.796;2023-09-08T02:44:00;20.00;58.10
75819;DHT22;64453;51.944;9.796;2023-09-08T02:46:27;20.20;58.70
75819;DHT22;64453;51.944;9.796;2023-09-08T02:48:54;20.20;57.80
75819;DHT22;64453;51.944;9.796;2023-09-08T02:51:22;20.20;57.80
75819;DHT22;64453;51.944;9.796;2023-09-08T02:53:49;20.00;57.60
75819;DHT22;64453;51.944;9.796;2023-09-08T02:56:16;19.80;57.60
75819;DHT22;64453;51.944;9.796;2023-09-08T02:58:42;19.90;57.90
75819;DHT22;64453;51.944;9.796;2023-09-08T03:01:12;19.70;57.70
75819;DHT22;64453;51.944;9.796;2023-09-08T03:03:40;19.70;58.10
75819;DHT22;64453;51.944;9.796;2023-09-08T03:06:08;19.70;57.90
75819;DHT22;64453;51.944;9.796;2023-09-08T03:08:37;19.50;58.10
75819;DHT22;64453;51.944;9.796;2023-09-08T03:11:08;19.70;57.80
75819;DHT22;64453;51.944;9.796;2023-09-08T03:13:35;19.50;58.20
75819;DHT22;64453;51.944;9.796;2023-09-08T03:16:03;19.40;57.70
75819;DHT22;64453;51.944;9.796;2023-09-08T03:18:31;19.70;58.10
75819;DHT22;64453;51.944;9.796;2023-09-08T03:20:59;19.60;57.10
75819;DHT22;64453;51.944;9.796;2023-09-08T03:23:27;19.50;57.60
75819;DHT22;64453;51.944;9.796;2023-09-08T03:25:55;19.70;57.50
75819;DHT22;64453;51.944;9.796;2023-09-08T03:28:22;19.70;57.70
75819;DHT22;64453;51.944;9.796;2023-09-08T03:30:54;19.50;58.30
75819;DHT22;64453;51.944;9.796;2023-09-08T03:33:21;19.50;57.50
75819;DHT22;64453;51.944;9.796;2023-09-08T03:35:48;19.30;58.00
75819;DHT22;64453;51.944;9.796;2023-09-08T03:38:16;19.30;58.20
75819;DHT22;64453;51.944;9.796;2023-09-08T03:40:44;19.50;58.00
75819;DHT22;64453;51.944;9.796;2023-09-08T03:43:15;19.60;58.50
75819;DHT22;64453;51.944;9.796;2023-09-08T03:45:43;19.40;58.40
75819;DHT22;64453;51.944;9.796;2023-09-08T03:48:10;19.40;58.00
75819;DHT22;64453;51.944;9.796;2023-09-08T03:50:37;19.20;57.80
75819;DHT22;64453;51.944;9.796;2023-09-08T03:53:05;19.00;57.80
75819;DHT22;64453;51.944;9.796;2023-09-08T03:55:32;18.70;58.50
75819;DHT22;64453;51.944;9.796;2023-09-08T03:57:59;18.80;58.50
75819;DHT22;64453;51.944;9.796;2023-09-08T04:00:28;18.90;58.90
75819;DHT22;64453;51.944;9.796;2023-09-08T04:02:55;19.10;58.80
75819;DHT22;64453;51.944;9.796;2023-09-08T04:05:22;19.20;58.20
75819;DHT22;64453;51.944;9.796;2023-09-08T04:07:49;19.30;57.40
75819;DHT22;64453;51.944;9.796;2023-09-08T04:10:16;19.40;57.20
75819;DHT22;64453;51.944;9.796;2023-09-08T04:12:43;19.40;57.10
75819;DHT22;64453;51.944;9.796;2023-09-08T04:15:10;18.80;57.40
75819;DHT22;64453;51.944;9.796;2023-09-08T04:17:39;18.70;58.40
75819;DHT22;64453;51.944;9.796;2023-09-08T04:20:07;18.80;58.10
75819;DHT22;64453;51.944;9.796;2023-09-08T04:22:35;18.70;58.20
75819;DHT22;64453;51.944;9.796;2023-09-08T04:25:02;18.80;58.00
75819;DHT22;64453;51.944;9.796;2023-09-08T04:27:31;18.80;57.70
75819;DHT22;64453;51.944;9.796;2023-09-08T04:29:58;18.50;58.30
75819;DHT22;64453;51.944;9.796;2023-09-08T04:32:25;18.40;58.20
75819;DHT22;64453;51.944;9.796;2023-09-08T04:34:54;18.50;58.10
75819;DHT22;64453;51.944;9.796;2023-09-08T04:37:21;18.20;58.30
75819;DHT22;64453;51.944;9.796;2023-09-08T04:39:49;18.50;58.40
75819;DHT22;64453;51.944;9.796;2023-09-08T04:42:18;18.70;57.80
75819;DHT22;64453;51.944;9.796;2023-09-08T04:44:45;18.90;57.60
75819;DHT22;64453;51.944;9.796;2023-09-08T04:47:12;18.40;58.10
75819;DHT22;64453;51.944;9.796;2023-09-08T04:49:39;18.20;59.00
75819;DHT22;64453;51.944;9.796;2023-09-08T04:52:08;18.30;58.50
75819;DHT22;64453;51.944;9.796;2023-09-08T04:54:36;18.50;58.60
75819;DHT22;64453;51.944;9.796;2023-09-08T04:57:04;18.60;58.20
75819;DHT22;64453;51.944;9.796;2023-09-08T04:59:31;18.30;58.30
75819;DHT22;64453;51.944;9.796;2023-09-08T05:01:58;18.30;58.30
75819;DHT22;64453;51.944;9.796;2023-09-08T05:04:25;18.00;58.40
75819;DHT22;64453;51.944;9.796;2023-09-08T05:06:52;18.20;59.00
75819;DHT22;64453;51.944;9.796;2023-09-08T05:09:20;18.20;58.50
75819;DHT22;64453;51.944;9.796;2023-09-08T05:11:47;18.30;59.00
75819;DHT22;64453;51.944;9.796;2023-09-08T05:14:14;18.60;59.00
75819;DHT22;64453;51.944;9.796;2023-09-08T05:16:40;18.60;58.20
75819;DHT22;64453;51.944;9.796;2023-09-08T05:19:12;18.40;58.70
75819;DHT22;64453;51.944;9.796;2023-09-08T05:21:39;18.40;58.50
75819;DHT22;64453;51.944;9.796;2023-09-08T05:24:07;18.10;58.90
75819;DHT22;64453;51.944;9.796;2023-09-08T05:26:36;18.20;58.80
75819;DHT22;64453;51.944;9.796;2023-09-08T05:29:04;18.10;59.90
75819;DHT22;64453;51.944;9.796;2023-09-08T05:31:31;18.00;59.50
75819;DHT22;64453;51.944;9.796;2023-09-08T05:33:58;18.30;59.40
75819;DHT22;64453;51.944;9.796;2023-09-08T05:36:25;18.30;60.00
75819;DHT22;64453;51.944;9.796;2023-09-08T05:38:52;18.40;59.50
75819;DHT22;64453;51.944;9.796;2023-09-08T05:41:19;18.40;59.80
75819;DHT22;64453;51.944;9.796;2023-09-08T05:43:47;18.60;60.90
75819;DHT22;64453;51.944;9.796;2023-09-08T05:46:14;18.80;60.00
75819;DHT22;64453;51.944;9.796;2023-09-08T05:48:41;19.00;60.10
75819;DHT22;64453;51.944;9.796;2023-09-08T05:51:09;19.00;59.60
75819;DHT22;64453;51.944;9.796;2023-09-08T05:53:35;18.80;60.80
75819;DHT22;64453;51.944;9.796;2023-09-08T05:56:05;18.70;62.10
75819;DHT22;64453;51.944;9.796;2023-09-08T05:58:32;19.00;61.80
75819;DHT22;64453;51.944;9.796;2023-09-08T06:01:00;19.20;61.70
75819;DHT22;64453;51.944;9.796;2023-09-08T06:03:28;19.20;61.30
75819;DHT22;64453;51.944;9.796;2023-09-08T06:05:55;19.40;61.40
75819;DHT22;64453;51.944;9.796;2023-09-08T06:08:22;19.70;61.50
75819;DHT22;64453;51.944;9.796;2023-09-08T06:10:48;19.90;61.60
75819;DHT22;64453;51.944;9.796;2023-09-08T06:13:15;20.00;61.90
75819;DHT22;64453;51.944;9.796;2023-09-08T06:15:42;20.20;62.20
75819;DHT22;64453;51.944;9.796;2023-09-08T06:18:11;20.20;62.20
75819;DHT22;64453;51.944;9.796;2023-09-08T06:20:44;20.30;62.10
75819;DHT22;64453;51.944;9.796;2023-09-08T06:23:12;20.40;62.30
75819;DHT22;64453;51.944;9.796;2023-09-08T06:25:39;20.40;62.20
75819;DHT22;64453;51.944;9.796;2023-09-08T06:28:07;20.30;62.60
75819;DHT22;64453;51.944;9.796;2023-09-08T06:30:33;20.30;62.50
75819;DHT22;64453;51.944;9.796;2023-09-08T06:33:00;20.50;62.70
75819;DHT22;64453;51.944;9.796;2023-09-08T06:35:30;20.60;62.80
75819;DHT22;64453;51.944;9.796;2023-09-08T06:37:57;20.80;63.00
75819;DHT22;64453;51.944;9.796;2023-09-08T06:40:24;20.90;63.10
75819;DHT22;64453;51.944;9.796;2023-09-08T06:42:51;20.90;62.90
75819;DHT22;64453;51.944;9.796;2023-09-08T06:45:18;21.10;62.70
75819;DHT22;64453;51.944;9.796;2023-09-08T06:47:45;21.20;62.80
75819;DHT22;64453;51.944;9.796;2023-09-08T06:50:12;21.30;63.00
75819;DHT22;64453;51.944;9.796;2023-09-08T06:52:40;21.40;64.00
75819;DHT22;64453;51.944;9.796;2023-09-08T06:55:07;21.40;64.10
75819;DHT22;64453;51.944;9.796;2023-09-08T06:57:35;21.50;64.50
75819;DHT22;64453;51.944;9.796;2023-09-08T07:00:02;21.50;64.40
75819;DHT22;64453;51.944;9.796;2023-09-08T07:02:32;21.60;64.30
75819;DHT22;64453;51.944;9.796;2023-09-08T07:05:00;21.60;63.90
75819;DHT22;64453;51.944;9.796;2023-09-08T07:07:31;21.60;64.90
75819;DHT22;64453;51.944;9.796;2023-09-08T07:10:02;21.70;64.40
75819;DHT22;64453;51.944;9.796;2023-09-08T07:12:29;21.70;64.10
75819;DHT22;64453;51.944;9.796;2023-09-08T07:14:56;21.90;63.80
75819;DHT22;64453;51.944;9.796;2023-09-08T07:17:26;21.90;62.60
75819;DHT22;64453;51.944;9.796;2023-09-08T07:19:53;22.00;62.50
75819;DHT22;64453;51.944;9.796;2023-09-08T07:22:20;22.00;62.10
75819;DHT22;64453;51.944;9.796;2023-09-08T07:24:47;22.10;62.00
75819;DHT22;64453;51.944;9.796;2023-09-08T07:27:15;22.10;62.10
75819;DHT22;64453;51.944;9.796;2023-09-08T07:29:43;22.20;62.60
75819;DHT22;64453;51.944;9.796;2023-09-08T07:32:10;22.30;62.50
75819;DHT22;64453;51.944;9.796;2023-09-08T07:34:37;22.30;62.60
75819;DHT22;64453;51.944;9.796;2023-09-08T07:37:04;22.40;62.20
75819;DHT22;64453;51.944;9.796;2023-09-08T07:39:31;22.40;62.20
75819;DHT22;64453;51.944;9.796;2023-09-08T07:41:58;22.50;61.60
75819;DHT22;64453;51.944;9.796;2023-09-08T07:44:27;22.60;61.50
75819;DHT22;64453;51.944;9.796;2023-09-08T07:46:54;22.60;62.80
75819;DHT22;64453;51.944;9.796;2023-09-08T07:49:22;22.70;63.40
75819;DHT22;64453;51.944;9.796;2023-09-08T07:51:49;22.70;63.50
75819;DHT22;64453;51.944;9.796;2023-09-08T07:54:16;22.80;62.40
75819;DHT22;64453;51.944;9.796;2023-09-08T07:56:43;22.80;62.10
75819;DHT22;64453;51.944;9.796;2023-09-08T07:59:10;22.80;61.80
75819;DHT22;64453;51.944;9.796;2023-09-08T08:01:38;22.90;61.20
75819;DHT22;64453;51.944;9.796;2023-09-08T08:04:05;22.90;62.40
75819;DHT22;64453;51.944;9.796;2023-09-08T08:06:32;23.00;63.20
75819;DHT22;64453;51.944;9.796;2023-09-08T08:08:59;23.00;62.10
75819;DHT22;64453;51.944;9.796;2023-09-08T08:11:26;23.00;62.70
75819;DHT22;64453;51.944;9.796;2023-09-08T08:13:53;23.10;61.60
75819;DHT22;64453;51.944;9.796;2023-09-08T08:16:22;23.10;60.20
75819;DHT22;64453;51.944;9.796;2023-09-08T08:18:51;23.20;59.80
75819;DHT22;64453;51.944;9.796;2023-09-08T08:21:18;23.20;59.70
75819;DHT22;64453;51.944;9.796;2023-09-08T08:23:45;23.30;58.90
75819;DHT22;64453;51.944;9.796;2023-09-08T08:26:11;23.40;58.70
75819;DHT22;64453;51.944;9.796;2023-09-08T08:28:38;23.40;59.50
75819;DHT22;64453;51.944;9.796;2023-09-08T08:31:05;23.40;59.50
75819;DHT22;64453;51.944;9.796;2023-09-08T08:33:33;23.50;60.60
75819;DHT22;64453;51.944;9.796;2023-09-08T08:36:01;23.60;58.90
75819;DHT22;64453;51.944;9.796;2023-09-08T08:38:28;23.70;58.60
75819;DHT22;64453;51.944;9.796;2023-09-08T08:41:02;23.80;58.10
75819;DHT22;64453;51.944;9.796;2023-09-08T08:43:31;23.80;58.40
75819;DHT22;64453;51.944;9.796;2023-09-08T08:45:59;23.80;58.30
75819;DHT22;64453;51.944;9.796;2023-09-08T08:48:27;23.80;59.10
75819;DHT22;64453;51.944;9.796;2023-09-08T08:50:56;23.80;59.20
75819;DHT22;64453;51.944;9.796;2023-09-08T08:53:25;23.90;59.30
75819;DHT22;64453;51.944;9.796;2023-09-08T08:55:56;23.90;60.00
75819;DHT22;64453;51.944;9.796;2023-09-08T08:58:25;24.00;59.80
75819;DHT22;64453;51.944;9.796;2023-09-08T09:00:53;24.00;59.10
75819;DHT22;64453;51.944;9.796;2023-09-08T09:03:23;24.00;59.20
75819;DHT22;64453;51.944;9.796;2023-09-08T09:05:52;24.10;59.90
75819;DHT22;64453;51.944;9.796;2023-09-08T09:08:19;24.10;59.10
75819;DHT22;64453;51.944;9.796;2023-09-08T09:10:49;24.20;58.20
75819;DHT22;64453;51.944;9.796;2023-09-08T09:13:16;24.20;58.60
75819;DHT22;64453;51.944;9.796;2023-09-08T09:15:43;24.30;56.00
75819;DHT22;64453;51.944;9.796;2023-09-08T09:18:12;24.30;55.80
75819;DHT22;64453;51.944;9.796;2023-09-08T09:20:39;24.40;55.10
75819;DHT22;64453;51.944;9.796;2023-09-08T09:23:07;24.40;56.00
75819;DHT22;64453;51.944;9.796;2023-09-08T09:25:34;24.50;56.70
75819;DHT22;64453;51.944;9.796;2023-09-08T09:28:05;24.50;56.40
75819;DHT22;64453;51.944;9.796;2023-09-08T09:30:47;24.60;55.90
75819;DHT22;64453;51.944;9.796;2023-09-08T09:33:14;24.60;57.00
75819;DHT22;64453;51.944;9.796;2023-09-08T09:35:42;24.60;56.40
75819;DHT22;64453;51.944;9.796;2023-09-08T09:38:10;24.60;55.70
75819;DHT22;64453;51.944;9.796;2023-09-08T09:40:38;24.60;56.00
75819;DHT22;64453;51.944;9.796;2023-09-08T09:43:07;24.60;57.40
75819;DHT22;64453;51.944;9.796;2023-09-08T09:45:35;24.60;56.80
75819;DHT22;64453;51.944;9.796;2023-09-08T09:48:04;24.70;55.70
75819;DHT22;64453;51.944;9.796;2023-09-08T09:50:34;24.70;56.40
75819;DHT22;64453;51.944;9.796;2023-09-08T09:53:07;24.70;56.40
75819;DHT22;64453;51.944;9.796;2023-09-08T09:55:36;24.80;55.60
75819;DHT22;64453;51.944;9.796;2023-09-08T09:58:06;24.80;56.70
75819;DHT22;64453;51.944;9.796;2023-09-08T10:00:34;24.80;56.20
75819;DHT22;64453;51.944;9.796;2023-09-08T10:03:03;24.90;56.00
75819;DHT22;64453;51.944;9.796;2023-09-08T10:05:31;25.00;56.50
75819;DHT22;64453;51.944;9.796;2023-09-08T10:07:58;25.00;55.80
75819;DHT22;64453;51.944;9.796;2023-09-08T10:10:27;25.00;55.60
75819;DHT22;64453;51.944;9.796;2023-09-08T10:12:57;25.00;55.20
75819;DHT22;64453;51.944;9.796;2023-09-08T10:15:30;25.10;55.60
75819;DHT22;64453;51.944;9.796;2023-09-08T10:17:59;25.10;55.40
75819;DHT22;64453;51.944;9.796;2023-09-08T10:20:31;25.10;55.20
75819;DHT22;64453;51.944;9.796;2023-09-08T10:23:06;25.20;55.80
75819;DHT22;64453;51.944;9.796;2023-09-08T10:25:39;25.20;54.80
75819;DHT22;64453;51.944;9.796;2023-09-08T10:28:12;25.20;55.40
75819;DHT22;64453;51.944;9.796;2023-09-08T10:30:41;25.20;55.60
75819;DHT22;64453;51.944;9.796;2023-09-08T10:33:09;25.30;54.30
75819;DHT22;64453;51.944;9.796;2023-09-08T10:35:36;25.30;54.70
75819;DHT22;64453;51.944;9.796;2023-09-08T10:38:23;25.40;53.00
75819;DHT22;64453;51.944;9.796;2023-09-08T10:40:50;25.40;54.10
75819;DHT22;64453;51.944;9.796;2023-09-08T10:43:18;25.40;54.20
75819;DHT22;64453;51.944;9.796;2023-09-08T10:45:47;25.50;53.80
75819;DHT22;64453;51.944;9.796;2023-09-08T10:48:14;25.50;54.40
75819;DHT22;64453;51.944;9.796;2023-09-08T10:50:42;25.50;54.10
75819;DHT22;64453;51.944;9.796;2023-09-08T10:53:15;25.50;54.20
75819;DHT22;64453;51.944;9.796;2023-09-08T10:55:43;25.60;54.40
75819;DHT22;64453;51.944;9.796;2023-09-08T10:58:19;25.60;53.30
75819;DHT22;64453;51.944;9.796;2023-09-08T11:00:51;25.70;53.80
75819;DHT22;64453;51.944;9.796;2023-09-08T11:03:26;25.70;53.30
75819;DHT22;64453;51.944;9.796;2023-09-08T11:05:56;25.70;53.20
75819;DHT22;64453;51.944;9.796;2023-09-08T11:08:23;25.70;53.60
75819;DHT22;64453;51.944;9.796;2023-09-08T11:10:50;25.70;53.40
75819;DHT22;64453;51.944;9.796;2023-09-08T11:13:17;25.70;53.30
75819;DHT22;64453;51.944;9.796;2023-09-08T11:15:44;25.80;52.60
75819;DHT22;64453;51.944;9.796;2023-09-08T11:18:12;25.80;52.70
75819;DHT22;64453;51.944;9.796;2023-09-08T11:20:39;25.80;52.10
75819;DHT22;64453;51.944;9.796;2023-09-08T11:23:06;25.90;52.60
75819;DHT22;64453;51.944;9.796;2023-09-08T11:25:33;26.00;51.60
75819;DHT22;64453;51.944;9.796;2023-09-08T11:28:01;26.00;52.10
75819;DHT22;64453;51.944;9.796;2023-09-08T11:30:28;26.00;52.50
75819;DHT22;64453;51.944;9.796;2023-09-08T11:32:55;26.10;53.00
75819;DHT22;64453;51.944;9.796;2023-09-08T11:35:28;26.10;53.10
75819;DHT22;64453;51.944;9.796;2023-09-08T11:37:59;26.10;52.80
75819;DHT22;64453;51.944;9.796;2023-09-08T11:40:30;26.20;53.20
75819;DHT22;64453;51.944;9.796;2023-09-08T11:42:58;26.20;52.90
75819;DHT22;64453;51.944;9.796;2023-09-08T11:45:25;26.30;53.00
75819;DHT22;64453;51.944;9.796;2023-09-08T11:47:53;26.40;52.80
75819;DHT22;64453;51.944;9.796;2023-09-08T11:50:22;26.40;52.90
75819;DHT22;64453;51.944;9.796;2023-09-08T11:52:52;26.40;52.80
75819;DHT22;64453;51.944;9.796;2023-09-08T11:55:21;26.50;52.30
75819;DHT22;64453;51.944;9.796;2023-09-08T11:57:52;26.50;51.70
75819;DHT22;64453;51.944;9.796;2023-09-08T12:00:23;26.60;51.10
75819;DHT22;64453;51.944;9.796;2023-09-08T12:02:51;26.60;51.60
75819;DHT22;64453;51.944;9.796;2023-09-08T12:05:23;26.60;50.30
75819;DHT22;64453;51.944;9.796;2023-09-08T12:07:54;26.70;49.60
75819;DHT22;64453;51.944;9.796;2023-09-08T12:10:23;26.70;50.00
75819;DHT22;64453;51.944;9.796;2023-09-08T12:12:52;26.80;50.70
75819;DHT22;64453;51.944;9.796;2023-09-08T12:15:30;26.90;50.80
75819;DHT22;64453;51.944;9.796;2023-09-08T12:17:58;26.90;50.50
75819;DHT22;64453;51.944;9.796;2023-09-08T12:20:26;27.00;51.30
75819;DHT22;64453;51.944;9.796;2023-09-08T12:22:56;27.00;49.70
75819;DHT22;64453;51.944;9.796;2023-09-08T12:25:24;27.10;49.30
75819;DHT22;64453;51.944;9.796;2023-09-08T12:27:54;27.20;49.00
75819;DHT22;64453;51.944;9.796;2023-09-08T12:30:22;27.30;48.70
75819;DHT22;64453;51.944;9.796;2023-09-08T12:32:55;27.30;49.10
75819;DHT22;64453;51.944;9.796;2023-09-08T12:35:23;27.40;48.10
75819;DHT22;64453;51.944;9.796;2023-09-08T12:37:58;27.40;46.90
75819;DHT22;64453;51.944;9.796;2023-09-08T12:40:26;27.50;47.20
75819;DHT22;64453;51.944;9.796;2023-09-08T12:42:53;27.50;46.80
75819;DHT22;64453;51.944;9.796;2023-09-08T12:45:22;27.70;45.70
75819;DHT22;64453;51.944;9.796;2023-09-08T12:47:49;27.70;45.80
75819;DHT22;64453;51.944;9.796;2023-09-08T12:50:16;27.70;45.40
75819;DHT22;64453;51.944;9.796;2023-09-08T12:52:43;27.80;46.20
75819;DHT22;64453;51.944;9.796;2023-09-08T12:55:12;27.90;45.30
75819;DHT22;64453;51.944;9.796;2023-09-08T12:57:39;27.90;45.60
75819;DHT22;64453;51.944;9.796;2023-09-08T13:00:07;28.00;45.30
75819;DHT22;64453;51.944;9.796;2023-09-08T13:02:34;28.10;45.30
75819;DHT22;64453;51.944;9.796;2023-09-08T13:05:01;28.20;45.30
75819;DHT22;64453;51.944;9.796;2023-09-08T13:07:29;28.20;45.80
75819;DHT22;64453;51.944;9.796;2023-09-08T13:09:56;28.20;46.00
75819;DHT22;64453;51.944;9.796;2023-09-08T13:12:24;28.30;46.00
75819;DHT22;64453;51.944;9.796;2023-09-08T13:14:51;28.40;45.90
75819;DHT22;64453;51.944;9.796;2023-09-08T13:17:18;28.40;45.10
75819;DHT22;64453;51.944;9.796;2023-09-08T13:19:45;28.50;45.30
75819;DHT22;64453;51.944;9.796;2023-09-08T13:22:13;28.50;45.70
75819;DHT22;64453;51.944;9.796;2023-09-08T13:24:40;28.70;45.00
75819;DHT22;64453;51.944;9.796;2023-09-08T13:27:07;28.70;44.80
75819;DHT22;64453;51.944;9.796;2023-09-08T13:29:35;28.70;44.30
75819;DHT22;64453;51.944;9.796;2023-09-08T13:32:03;28.80;44.20
75819;DHT22;64453;51.944;9.796;2023-09-08T13:34:31;28.70;45.20
75819;DHT22;64453;51.944;9.796;2023-09-08T13:37:00;28.70;45.00
75819;DHT22;64453;51.944;9.796;2023-09-08T13:39:27;28.80;44.70
75819;DHT22;64453;51.944;9.796;2023-09-08T13:41:55;28.80;45.00
75819;DHT22;64453;51.944;9.796;2023-09-08T13:44:26;28.90;44.50
75819;DHT22;64453;51.944;9.796;2023-09-08T13:46:55;28.90;44.60
75819;DHT22;64453;51.944;9.796;2023-09-08T13:49:22;28.90;45.10
75819;DHT22;64453;51.944;9.796;2023-09-08T13:51:49;29.00;45.20
75819;DHT22;64453;51.944;9.796;2023-09-08T13:54:19;29.00;45.30
75819;DHT22;64453;51.944;9.796;2023-09-08T13:56:57;29.00;44.60
75819;DHT22;64453;51.944;9.796;2023-09-08T13:59:27;29.00;45.30
75819;DHT22;64453;51.944;9.796;2023-09-08T14:01:56;29.00;45.00
75819;DHT22;64453;51.944;9.796;2023-09-08T14:04:24;29.10;45.00
75819;DHT22;64453;51.944;9.796;2023-09-08T14:06:51;29.20;43.60
75819;DHT22;64453;51.944;9.796;2023-09-08T14:09:19;29.20;43.30
75819;DHT22;64453;51.944;9.796;2023-09-08T14:11:46;29.30;42.70
75819;DHT22;64453;51.944;9.796;2023-09-08T14:14:13;29.30;42.90
75819;DHT22;64453;51.944;9.796;2023-09-08T14:16:40;29.30;43.30
75819;DHT22;64453;51.944;9.796;2023-09-08T14:19:08;29.30;43.90
75819;DHT22;64453;51.944;9.796;2023-09-08T14:21:35;29.40;43.80
75819;DHT22;64453;51.944;9.796;2023-09-08T14:24:03;29.50;43.50
75819;DHT22;64453;51.944;9.796;2023-09-08T14:26:30;29.50;43.50
75819;DHT22;64453;51.944;9.796;2023-09-08T14:28:57;29.50;43.50
75819;DHT22;64453;51.944;9.796;2023-09-08T14:31:24;29.50;43.20
75819;DHT22;64453;51.944;9.796;2023-09-08T14:33:51;29.40;43.50
75819;DHT22;64453;51.944;9.796;2023-09-08T14:36:19;29.60;43.60
75819;DHT22;64453;51.944;9.796;2023-09-08T14:38:46;29.70;43.50
75819;DHT22;64453;51.944;9.796;2023-09-08T14:41:13;29.70;43.30
75819;DHT22;64453;51.944;9.796;2023-09-08T14:43:41;29.70;43.30
75819;DHT22;64453;51.944;9.796;2023-09-08T14:46:07;29.80;43.30
75819;DHT22;64453;51.944;9.796;2023-09-08T14:48:35;29.80;43.70
75819;DHT22;64453;51.944;9.796;2023-09-08T14:51:02;29.90;43.10
75819;DHT22;64453;51.944;9.796;2023-09-08T14:53:31;30.00;42.70
75819;DHT22;64453;51.944;9.796;2023-09-08T14:55:58;30.00;42.30
75819;DHT22;64453;51.944;9.796;2023-09-08T14:58:25;30.10;42.20
75819;DHT22;64453;51.944;9.796;2023-09-08T15:00:57;30.20;41.20
75819;DHT22;64453;51.944;9.796;2023-09-08T15:03:29;30.20;41.50
75819;DHT22;64453;51.944;9.796;2023-09-08T15:05:57;30.60;41.20
75819;DHT22;64453;51.944;9.796;2023-09-08T15:08:24;30.60;41.10
75819;DHT22;64453;51.944;9.796;2023-09-08T15:10:52;30.60;41.30
75819;DHT22;64453;51.944;9.796;2023-09-08T15:13:19;30.60;41.00
75819;DHT22;64453;51.944;9.796;2023-09-08T15:15:46;30.70;41.00
75819;DHT22;64453;51.944;9.796;2023-09-08T15:18:14;30.70;40.90
75819;DHT22;64453;51.944;9.796;2023-09-08T15:20:50;30.80;41.00
75819;DHT22;64453;51.944;9.796;2023-09-08T15:23:17;31.00;41.90
75819;DHT22;64453;51.944;9.796;2023-09-08T15:25:52;32.40;40.50
75819;DHT22;64453;51.944;9.796;2023-09-08T15:28:19;33.20;39.40
75819;DHT22;64453;51.944;9.796;2023-09-08T15:30:47;32.30;39.20
75819;DHT22;64453;51.944;9.796;2023-09-08T15:33:15;32.00;39.70
75819;DHT22;64453;51.944;9.796;2023-09-08T15:35:42;31.80;39.20